Time;durP1;ratioP1;P1;durP2;ratioP2;P2;SDS_P1;SDS_P2;PMS_P1;PMS_P2;Temp;Humidity;BMP_temperature;BMP_pressure;BME280_temperature;BME280_humidity;BME280_pressure;Samples;Min_cycle;Max_cycle;Signal;HPM_P1;HPM_P2
2023/08/01 00:01:34;;;;;;;3.72;1.25;;;17.90;99.90;;;18.05;99.49;98895.06;4962990;28;20047;-85
2023/08/01 00:04:02;;;;;;;2.75;1.10;;;17.90;99.90;;;18.04;99.96;98882.69;4956392;28;20055;-85
2023/08/01 00:06:29;;;;;;;4.25;1.20;;;17.80;99.90;;;17.99;100.00;98876.28;4960599;28;20043;-85
2023/08/01 00:08:56;;;;;;;4.28;1.27;;;17.80;99.90;;;18.02;100.00;98856.81;4968622;28;20596;-84
2023/08/01 00:11:23;;;;;;;3.40;1.30;;;17.80;99.90;;;18.00;100.00;98855.50;4968765;28;20122;-84
2023/08/01 00:13:52;;;;;;;3.17;1.33;;;17.80;99.90;;;18.02;100.00;98862.22;4954592;28;20079;-84
2023/08/01 00:16:20;;;;;;;4.57;1.33;;;17.80;99.90;;;18.02;100.00;98859.50;4971714;28;20051;-85
2023/08/01 00:18:47;;;;;;;4.05;1.13;;;17.80;99.90;;;18.04;100.00;98861.09;4952133;28;20047;-85
2023/08/01 00:21:14;;;;;;;4.35;1.40;;;17.90;99.90;;;18.00;100.00;98861.69;4957587;28;20054;-85
2023/08/01 00:23:41;;;;;;;3.80;1.15;;;17.80;99.90;;;17.98;100.00;98852.31;4952339;29;20051;-85
2023/08/01 00:26:09;;;;;;;5.15;1.20;;;17.80;99.90;;;17.92;100.00;98867.81;4970487;28;20085;-85
2023/08/01 00:28:36;;;;;;;5.57;1.10;;;17.80;99.90;;;17.86;100.00;98860.09;4951917;28;20039;-84
2023/08/01 00:31:06;;;;;;;4.25;1.17;;;17.70;99.90;;;17.85;100.00;98859.28;4951839;28;20508;-84
2023/08/01 00:33:34;;;;;;;3.60;1.65;;;17.70;99.90;;;17.82;100.00;98865.31;4966459;28;20043;-85
2023/08/01 00:36:02;;;;;;;3.42;1.85;;;17.70;99.90;;;17.84;100.00;98854.22;4949660;28;20142;-85
2023/08/01 00:38:30;;;;;;;5.28;1.80;;;17.70;99.90;;;17.84;100.00;98852.31;4947875;28;20043;-84
2023/08/01 00:40:57;;;;;;;4.70;1.63;;;17.70;99.90;;;17.86;99.30;98825.03;4971667;28;20122;-85
2023/08/01 00:43:24;;;;;;;3.22;1.58;;;17.70;99.90;;;17.88;99.30;98834.44;4971388;28;20047;-85
2023/08/01 00:46:00;;;;;;;5.47;1.77;;;17.70;99.90;;;17.84;97.09;98841.53;4967788;28;20070;-85
2023/08/01 00:48:29;;;;;;;3.63;1.40;;;17.70;99.90;;;17.83;98.01;98841.81;4969525;28;20043;-85
2023/08/01 00:50:58;;;;;;;5.38;1.63;;;17.60;99.90;;;17.84;97.65;98836.13;4961266;28;20054;-85
2023/08/01 00:53:25;;;;;;;3.03;1.42;;;17.60;99.90;;;17.85;97.33;98829.63;4954109;28;20046;-85
2023/08/01 00:55:54;;;;;;;5.72;1.40;;;17.60;99.90;;;17.86;97.02;98828.56;4979422;28;20079;-85
2023/08/01 00:58:21;;;;;;;5.10;1.60;;;17.60;99.90;;;17.88;96.61;98823.66;4971983;28;20035;-85
2023/08/01 01:00:48;;;;;;;5.40;1.60;;;17.70;99.90;;;17.89;95.94;98813.66;4971104;28;20089;-84
2023/08/01 01:03:17;;;;;;;4.25;1.70;;;17.70;99.90;;;17.90;95.67;98813.34;4957327;28;20489;-85
2023/08/01 01:05:54;;;;;;;3.92;1.55;;;17.70;99.90;;;17.91;95.65;98809.56;4969357;28;20071;-85
2023/08/01 01:08:22;;;;;;;3.40;1.60;;;17.70;99.90;;;17.90;95.50;98810.66;4971308;28;20043;-85
2023/08/01 01:10:49;;;;;;;3.42;1.75;;;17.70;99.90;;;17.89;95.22;98806.34;4959495;28;20420;-85
2023/08/01 01:13:16;;;;;;;3.40;1.58;;;17.70;99.90;;;17.90;95.21;98802.56;4956530;28;20101;-84
2023/08/01 01:15:43;;;;;;;3.28;1.63;;;17.70;99.90;;;17.91;94.79;98793.38;4961286;28;20087;-84
2023/08/01 01:18:11;;;;;;;3.90;1.73;;;17.70;99.90;;;17.93;94.83;98791.16;4971270;28;20062;-85
2023/08/01 01:20:39;;;;;;;3.75;1.50;;;17.70;99.90;;;17.93;94.44;98796.56;4956440;28;20066;-84
2023/08/01 01:23:09;;;;;;;3.33;1.60;;;17.70;99.90;;;17.94;94.58;98797.38;4970994;28;20039;-84
2023/08/01 01:25:37;;;;;;;4.03;1.75;;;17.70;99.90;;;17.94;94.46;98798.16;4963883;28;20047;-84
2023/08/01 01:28:07;;;;;;;3.45;1.48;;;17.70;99.90;;;17.93;94.48;98793.88;4971163;28;20073;-85
2023/08/01 01:30:35;;;;;;;6.10;1.58;;;17.70;99.90;;;17.94;94.48;98791.97;4971319;28;20102;-85
2023/08/01 01:33:04;;;;;;;2.92;1.42;;;17.70;99.90;;;17.93;94.30;98785.78;4970881;28;20164;-85
2023/08/01 01:35:34;;;;;;;2.95;1.30;;;17.70;99.90;;;17.92;94.34;98786.88;4956558;28;20046;-85
2023/08/01 01:38:04;;;;;;;2.95;1.70;;;17.70;99.90;;;17.91;94.63;98782.59;4958834;28;20427;-84
2023/08/01 01:40:32;;;;;;;3.15;1.90;;;17.70;99.90;;;17.92;94.59;98762.59;4971687;28;20086;-85
2023/08/01 01:42:59;;;;;;;3.65;2.20;;;17.70;99.90;;;17.93;94.55;98758.00;4982801;28;20047;-84
2023/08/01 01:45:26;;;;;;;5.00;2.30;;;17.70;99.90;;;17.94;94.61;98749.59;4969084;28;20046;-84
2023/08/01 01:47:54;;;;;;;4.90;2.22;;;17.70;99.90;;;17.94;94.43;98752.31;4956682;28;20048;-84
2023/08/01 01:50:21;;;;;;;4.25;2.38;;;17.70;99.90;;;17.96;94.79;98752.03;4970017;28;20102;-85
2023/08/01 01:52:48;;;;;;;3.70;2.25;;;17.70;99.90;;;17.95;94.49;98755.78;4954671;28;20079;-85
2023/08/01 01:55:18;;;;;;;4.15;2.70;;;17.70;99.90;;;17.95;94.44;98756.59;4961809;28;20074;-85
2023/08/01 01:57:45;;;;;;;5.03;3.20;;;17.70;99.90;;;17.89;95.24;98757.00;4969919;28;20115;-85
2023/08/01 02:00:13;;;;;;;6.72;3.53;;;17.70;99.90;;;17.87;96.44;98762.72;4972227;28;20070;-85
2023/08/01 02:02:41;;;;;;;6.97;4.20;;;17.70;99.90;;;17.86;96.37;98763.81;4953727;29;20058;-85
2023/08/01 02:05:09;;;;;;;9.13;3.50;;;17.70;99.90;;;17.81;96.24;98766.59;4968579;28;20125;-85
2023/08/01 02:07:36;;;;;;;6.03;3.30;;;17.60;99.90;;;17.79;95.56;98765.31;4955924;28;20429;-85
2023/08/01 02:10:03;;;;;;;5.60;2.50;;;17.60;99.90;;;17.74;93.93;98775.09;4953427;28;20154;-84
2023/08/01 02:12:35;;;;;;;5.88;2.45;;;17.50;99.90;;;17.64;93.18;98780.66;4968981;28;20542;-85
2023/08/01 02:15:03;;;;;;;4.63;2.13;;;17.50;99.90;;;17.62;92.68;98779.38;4961207;28;20057;-84
2023/08/01 02:17:31;;;;;;;6.20;2.08;;;17.40;99.90;;;17.53;91.72;98767.69;4985214;28;20779;-84
2023/08/01 02:19:58;;;;;;;6.57;2.28;;;17.40;99.90;;;17.52;91.23;98774.97;4969686;28;20468;-84
2023/08/01 02:22:26;;;;;;;5.07;2.20;;;17.30;99.90;;;17.52;91.17;98769.59;4969877;28;20047;-84
2023/08/01 02:24:53;;;;;;;4.32;2.15;;;17.30;99.90;;;17.46;91.35;98766.16;4969807;28;20126;-85
2023/08/01 02:27:21;;;;;;;5.22;1.98;;;17.20;99.90;;;17.41;90.33;98762.75;4955259;29;20043;-84
2023/08/01 02:29:51;;;;;;;4.53;2.20;;;17.20;99.90;;;17.38;91.21;98769.56;4943353;28;20539;-84
2023/08/01 02:32:18;;;;;;;5.45;2.30;;;17.20;99.90;;;17.39;91.20;98764.97;4955197;28;20134;-85
2023/08/01 02:34:45;;;;;;;6.55;2.47;;;17.20;99.90;;;17.36;91.04;98754.78;4967754;28;20063;-85
2023/08/01 02:37:13;;;;;;;6.85;2.53;;;17.10;99.90;;;17.34;91.24;98751.59;4969235;28;20079;-84
2023/08/01 02:39:40;;;;;;;7.00;3.42;;;17.10;99.90;;;17.35;91.31;98756.69;4969192;28;20882;-85
2023/08/01 02:42:08;;;;;;;8.52;2.90;;;17.10;99.90;;;17.38;91.16;98753.41;4969537;28;20032;-85
2023/08/01 02:44:35;;;;;;;5.75;2.92;;;17.10;99.90;;;17.42;91.44;98761.66;4956773;28;20497;-84
2023/08/01 02:47:05;;;;;;;6.32;3.28;;;17.20;99.90;;;17.45;91.13;98775.34;4956464;28;20066;-85
2023/08/01 02:49:33;;;;;;;7.38;3.30;;;17.20;99.90;;;17.47;90.98;98770.47;4953080;28;20035;-84
2023/08/01 02:52:00;;;;;;;7.20;3.75;;;17.20;99.90;;;17.41;91.08;98771.66;4969369;28;20178;-85
2023/08/01 02:54:27;;;;;;;7.57;4.32;;;17.20;99.90;;;17.42;91.09;98775.97;4971122;28;20094;-84
2023/08/01 02:56:55;;;;;;;8.55;4.18;;;17.20;99.90;;;17.42;91.03;98773.28;4955181;28;20074;-85
2023/08/01 02:59:23;;;;;;;8.77;4.55;;;17.20;99.90;;;17.43;91.11;98779.44;4968373;28;20039;-85
2023/08/01 03:01:51;;;;;;;11.52;5.47;;;17.20;99.90;;;17.45;91.02;98778.03;4954750;28;20047;-85
2023/08/01 03:04:19;;;;;;;9.35;5.55;;;17.20;99.90;;;17.40;91.01;98772.75;4969140;28;20133;-85
2023/08/01 03:06:47;;;;;;;10.20;5.88;;;17.20;99.90;;;17.41;91.37;98768.16;4971829;28;20049;-84
2023/08/01 03:09:14;;;;;;;11.73;6.82;;;17.20;99.90;;;17.41;91.47;98768.94;4968652;28;20047;-84
2023/08/01 03:11:41;;;;;;;13.70;7.57;;;17.20;99.90;;;17.35;91.67;98777.44;4952930;29;20053;-85
2023/08/01 03:14:08;;;;;;;13.95;8.50;;;17.10;99.90;;;17.29;92.20;98779.44;4968787;28;20083;-84
2023/08/01 03:16:36;;;;;;;15.90;8.68;;;17.10;99.90;;;17.30;92.88;98775.63;4969106;28;20106;-84
2023/08/01 03:19:05;;;;;;;15.48;9.45;;;17.10;99.90;;;17.33;92.15;98782.34;4952175;28;20798;-84
2023/08/01 03:21:35;;;;;;;15.80;9.80;;;17.10;99.90;;;17.29;92.28;98787.50;4960082;28;20402;-84
2023/08/01 03:24:08;;;;;;;16.83;9.77;;;17.00;99.90;;;17.27;93.03;98784.31;4971168;28;20418;-84
2023/08/01 03:26:35;;;;;;;15.38;10.85;;;17.00;99.90;;;17.28;92.56;98791.31;4954349;28;21685;-85
2023/08/01 03:29:05;;;;;;;17.10;11.07;;;17.10;99.90;;;17.30;92.75;98789.09;4948095;28;20051;-84
2023/08/01 03:31:33;;;;;;;16.92;11.82;;;17.10;99.90;;;17.25;91.97;98786.50;4961445;28;20047;-85
2023/08/01 03:34:00;;;;;;;15.25;11.40;;;17.10;99.90;;;17.24;92.71;98788.41;4953505;29;20035;-85
2023/08/01 03:36:28;;;;;;;18.70;12.05;;;17.10;99.90;;;17.29;92.97;98802.88;4953121;28;20035;-85
2023/08/01 03:38:56;;;;;;;17.83;11.23;;;17.10;99.90;;;17.28;92.50;98802.09;4961994;28;20078;-84
2023/08/01 03:41:25;;;;;;;20.13;11.65;;;17.10;99.90;;;17.24;92.39;98806.47;4951839;29;20110;-84
2023/08/01 03:43:52;;;;;;;15.18;11.23;;;17.00;99.90;;;17.28;92.83;98812.06;4967602;28;20043;-85
2023/08/01 03:46:20;;;;;;;21.60;12.35;;;17.00;99.90;;;17.25;92.32;98813.44;4968201;28;20047;-85
2023/08/01 03:48:49;;;;;;;19.65;11.68;;;17.10;99.90;;;17.26;91.87;98809.66;4961313;28;20107;-84
2023/08/01 03:51:19;;;;;;;18.25;10.93;;;17.00;99.90;;;17.25;90.86;98821.53;4968456;28;20043;-84
2023/08/01 03:53:46;;;;;;;19.35;11.35;;;17.00;99.90;;;17.22;91.57;98822.91;4970723;28;20053;-85
2023/08/01 03:56:15;;;;;;;19.85;12.10;;;17.00;99.90;;;17.20;90.17;98821.63;4954080;28;20039;-85
2023/08/01 03:58:42;;;;;;;19.45;10.80;;;16.90;99.90;;;17.10;90.68;98821.78;4954566;28;20420;-84
2023/08/01 04:01:11;;;;;;;18.38;11.02;;;16.90;99.90;;;17.07;91.06;98825.06;4965746;28;20067;-85
2023/08/01 04:03:38;;;;;;;18.25;10.50;;;16.80;99.90;;;17.07;90.62;98827.75;4951683;28;20139;-85
2023/08/01 04:06:06;;;;;;;21.10;10.43;;;16.90;99.90;;;17.09;90.36;98833.66;4946526;28;20039;-84
2023/08/01 04:08:33;;;;;;;20.27;10.38;;;16.90;99.90;;;17.06;90.15;98842.31;4952086;28;20488;-84
2023/08/01 04:11:00;;;;;;;18.63;11.60;;;16.80;99.90;;;17.04;89.98;98836.44;4952230;28;20059;-84
2023/08/01 04:13:29;;;;;;;22.15;11.02;;;16.80;99.90;;;17.07;90.38;98835.84;4953170;28;20035;-84
2023/08/01 04:15:56;;;;;;;16.25;10.48;;;16.80;99.90;;;17.06;90.25;98836.94;4962072;28;20102;-84
2023/08/01 04:18:24;;;;;;;18.35;10.07;;;16.90;99.90;;;17.11;89.93;98836.84;4954990;28;20035;-84
2023/08/01 04:20:51;;;;;;;17.98;10.90;;;16.90;99.90;;;17.12;89.80;98841.13;4956626;29;20416;-84
2023/08/01 04:23:18;;;;;;;18.02;10.48;;;16.90;99.90;;;17.11;89.69;98840.34;4944556;28;20070;-84
2023/08/01 04:25:46;;;;;;;17.15;10.45;;;16.90;99.90;;;17.07;89.40;98839.31;4955146;29;20081;-85
2023/08/01 04:28:13;;;;;;;19.88;9.55;;;16.80;99.90;;;17.01;88.97;98837.00;4956603;28;20146;-84
2023/08/01 04:30:50;;;;;;;16.95;10.13;;;16.80;99.90;;;17.01;89.62;98842.41;4972771;28;20047;-85
2023/08/01 04:33:17;;;;;;;16.98;10.07;;;16.80;99.90;;;17.03;89.68;98832.94;4955581;29;20051;-85
2023/08/01 04:35:45;;;;;;;21.67;11.00;;;16.80;99.90;;;17.09;88.97;98836.34;4957485;29;20043;-85
2023/08/01 04:38:15;;;;;;;18.03;11.07;;;16.90;99.90;;;17.11;88.75;98823.38;4956073;28;22673;-83
2023/08/01 04:40:42;;;;;;;20.48;10.80;;;16.90;99.90;;;17.10;88.58;98832.56;4959134;28;20125;-85
2023/08/01 04:43:10;;;;;;;19.63;10.70;;;16.80;99.90;;;17.10;87.94;98827.97;4965953;28;20535;-87
2023/08/01 04:45:37;;;;;;;18.63;10.75;;;16.80;99.90;;;17.10;88.25;98825.28;4957260;29;20055;-89
2023/08/01 04:48:06;;;;;;;19.70;11.15;;;16.80;99.90;;;17.06;88.52;98820.78;4971715;28;20142;-89
2023/08/01 04:50:34;;;;;;;20.05;10.93;;;16.80;99.90;;;17.07;88.36;98827.75;4971940;28;20496;-89
2023/08/01 04:53:01;;;;;;;18.08;12.15;;;16.80;99.90;;;17.06;88.76;98828.84;4956735;28;20028;-89
2023/08/01 04:55:28;;;;;;;23.00;12.30;;;16.80;99.90;;;17.08;88.57;98824.78;4953229;28;20390;-89
2023/08/01 04:57:56;;;;;;;17.73;11.63;;;16.80;99.90;;;17.09;88.29;98839.84;4971894;28;20047;-89
2023/08/01 05:00:23;;;;;;;20.33;12.02;;;16.80;99.90;;;17.06;88.05;98840.41;4967488;28;20086;-89
2023/08/01 05:02:50;;;;;;;24.45;13.50;;;16.80;99.90;;;17.01;88.96;98835.13;4971839;28;20059;-89
2023/08/01 05:05:19;;;;;;;21.52;12.82;;;16.80;99.90;;;17.03;89.20;98840.19;4956676;29;20045;-89
2023/08/01 05:07:47;;;;;;;26.77;14.70;;;16.80;99.90;;;17.04;89.31;98844.53;4956539;29;20178;-89
2023/08/01 05:10:14;;;;;;;20.88;14.35;;;16.80;99.90;;;17.02;89.40;98841.31;4957913;28;20047;-89
2023/08/01 05:12:41;;;;;;;25.17;15.48;;;16.70;99.90;;;16.99;89.60;98838.13;4958081;28;20059;-89
2023/08/01 05:15:09;;;;;;;27.75;15.50;;;16.80;99.90;;;17.02;90.04;98846.69;4961497;28;20160;-89
2023/08/01 05:17:36;;;;;;;24.20;15.05;;;16.80;99.90;;;17.06;89.78;98847.72;4955079;29;20066;-89
2023/08/01 05:20:05;;;;;;;29.83;16.75;;;16.80;99.90;;;17.02;89.47;98855.56;4969042;28;20040;-89
2023/08/01 05:22:34;;;;;;;27.92;17.67;;;16.80;99.90;;;16.88;90.18;98857.41;4970093;28;20109;-89
2023/08/01 05:25:03;;;;;;;26.70;17.15;;;16.70;99.90;;;16.85;91.23;98866.88;4954560;28;20046;-89
2023/08/01 05:27:31;;;;;;;30.77;17.60;;;16.70;99.90;;;16.84;91.12;98865.28;4970141;28;20036;-88
2023/08/01 05:29:58;;;;;;;32.08;18.02;;;16.70;99.90;;;16.89;91.66;98869.78;4955637;28;20139;-89
2023/08/01 05:32:25;;;;;;;28.15;17.45;;;16.70;99.90;;;16.94;91.38;98878.59;4956692;28;20127;-88
2023/08/01 05:34:53;;;;;;;28.63;18.27;;;16.70;99.90;;;16.99;91.10;98870.44;4965783;28;20555;-87
2023/08/01 05:37:20;;;;;;;29.33;18.45;;;16.80;99.90;;;16.95;90.35;98874.81;4980761;28;20479;-88
2023/08/01 05:39:49;;;;;;;30.85;18.77;;;16.80;99.90;;;16.93;91.17;98876.16;4966693;28;20126;-88
2023/08/01 05:42:16;;;;;;;33.22;19.70;;;16.80;99.90;;;16.86;90.80;98875.75;4970271;28;20652;-87
2023/08/01 05:44:43;;;;;;;29.85;18.80;;;16.80;99.90;;;16.84;92.02;98881.44;4953668;29;20122;-88
2023/08/01 05:47:11;;;;;;;29.25;19.02;;;16.70;99.90;;;16.87;92.27;98878.13;4968691;28;20158;-89
2023/08/01 05:49:38;;;;;;;29.45;18.27;;;16.70;99.90;;;16.89;92.13;98886.75;4977555;28;20047;-86
2023/08/01 05:52:07;;;;;;;29.65;18.85;;;16.80;99.90;;;16.88;92.20;98890.50;4968662;28;20515;-87
2023/08/01 05:54:34;;;;;;;33.88;19.50;;;16.80;99.90;;;16.90;92.27;98887.53;4962423;28;20374;-87
2023/08/01 05:57:03;;;;;;;32.70;19.85;;;16.80;99.90;;;16.92;92.07;98890.75;4969882;28;20091;-87
2023/08/01 05:59:31;;;;;;;30.35;19.25;;;16.80;99.90;;;16.86;91.78;98887.31;4968751;28;20043;-87
2023/08/01 06:01:58;;;;;;;31.48;19.60;;;16.70;99.90;;;16.89;92.14;98886.75;4952806;29;20527;-87
2023/08/01 06:04:25;;;;;;;33.83;19.80;;;16.70;99.90;;;16.93;92.08;98884.25;4966375;28;20047;-86
2023/08/01 06:06:53;;;;;;;31.02;19.63;;;16.80;99.90;;;16.94;92.18;98889.38;4972158;28;20560;-87
2023/08/01 06:09:20;;;;;;;33.33;20.27;;;16.80;99.90;;;16.95;92.13;98890.97;4962824;28;20424;-87
2023/08/01 06:11:47;;;;;;;34.25;20.45;;;16.80;99.90;;;16.93;92.48;98903.94;4963449;28;20062;-87
2023/08/01 06:14:16;;;;;;;33.75;20.60;;;16.80;99.90;;;16.94;91.89;98892.06;4967959;28;20128;-87
2023/08/01 06:16:44;;;;;;;31.52;20.13;;;16.80;99.90;;;16.89;92.05;98900.22;4953195;29;20488;-87
2023/08/01 06:19:11;;;;;;;32.85;18.92;;;16.80;99.90;;;16.90;92.27;98899.13;4963552;28;20055;-87
2023/08/01 06:21:39;;;;;;;34.85;20.02;;;16.80;99.90;;;16.94;92.07;98897.44;4963798;28;20102;-87
2023/08/01 06:24:07;;;;;;;28.58;19.17;;;16.80;99.90;;;16.98;92.21;98897.63;4951345;28;20134;-87
2023/08/01 06:26:35;;;;;;;30.10;18.95;;;16.90;99.90;;;17.06;92.27;98901.59;4963568;28;20074;-87
2023/08/01 06:29:02;;;;;;;33.90;19.55;;;16.90;99.90;;;17.05;91.98;98899.97;4953492;28;20038;-87
2023/08/01 06:31:31;;;;;;;30.63;19.45;;;16.90;99.90;;;17.04;92.29;98904.56;4962002;28;20679;-87
2023/08/01 06:33:58;;;;;;;28.08;19.38;;;16.90;99.90;;;17.10;92.44;98906.09;4966458;28;20138;-87
2023/08/01 06:36:25;;;;;;;24.80;17.92;;;17.00;99.90;;;17.11;92.29;98904.19;4951603;28;20039;-88
2023/08/01 06:38:53;;;;;;;24.20;17.33;;;17.00;99.90;;;17.10;92.13;98898.00;4966762;28;20451;-86
2023/08/01 06:41:20;;;;;;;32.40;18.13;;;16.90;99.90;;;17.12;91.83;98905.78;4951576;29;20040;-87
2023/08/01 06:43:47;;;;;;;30.30;16.52;;;17.00;99.90;;;17.13;91.84;98897.44;4945919;29;20841;-87
2023/08/01 06:46:14;;;;;;;30.42;17.35;;;17.00;99.90;;;17.15;92.10;98905.22;4952676;28;20106;-87
2023/08/01 06:48:43;;;;;;;32.33;16.77;;;17.00;99.90;;;17.14;92.09;98909.00;4950764;28;20066;-87
2023/08/01 06:51:11;;;;;;;24.23;16.88;;;17.00;99.90;;;17.13;92.19;98907.38;4965370;28;20490;-87
2023/08/01 06:53:38;;;;;;;26.35;16.73;;;17.00;99.90;;;17.18;92.83;98900.06;4965763;28;20126;-86
2023/08/01 06:56:06;;;;;;;25.00;16.33;;;17.10;99.90;;;17.16;92.42;98909.50;4954342;28;20403;-87
2023/08/01 06:58:33;;;;;;;29.20;15.63;;;17.00;99.90;;;17.11;93.06;98904.19;4951373;28;20095;-87
2023/08/01 07:01:00;;;;;;;27.15;14.98;;;17.00;99.90;;;17.14;93.15;98906.31;4975724;28;20039;-87
2023/08/01 07:03:27;;;;;;;25.42;15.20;;;17.00;99.90;;;17.10;92.15;98913.38;4965722;28;20043;-87
2023/08/01 07:05:56;;;;;;;27.88;15.90;;;17.00;99.90;;;17.16;92.82;98912.19;4971262;28;20051;-87
2023/08/01 07:08:23;;;;;;;23.77;15.80;;;17.00;99.90;;;17.18;93.41;98916.22;4961192;28;20091;-87
2023/08/01 07:10:51;;;;;;;24.95;15.43;;;17.10;99.90;;;17.24;93.96;98911.53;4947974;28;20086;-86
2023/08/01 07:13:19;;;;;;;22.67;14.15;;;17.10;99.90;;;17.20;93.04;98915.91;4966811;28;20468;-85
2023/08/01 07:15:46;;;;;;;24.27;14.18;;;17.10;99.90;;;17.17;93.11;98922.69;4964826;28;20047;-85
2023/08/01 07:18:14;;;;;;;24.10;14.32;;;17.10;99.90;;;17.21;93.48;98920.19;4934957;28;20039;-85
2023/08/01 07:20:41;;;;;;;25.80;14.20;;;17.20;99.90;;;17.22;93.00;98921.81;4950478;29;20497;-85
2023/08/01 07:23:10;;;;;;;19.85;13.75;;;17.20;99.90;;;17.27;93.48;98927.09;4957750;28;20504;-85
2023/08/01 07:25:37;;;;;;;28.23;13.77;;;17.20;99.90;;;17.31;94.50;98922.75;4952445;28;20043;-85
2023/08/01 07:28:05;;;;;;;19.67;12.77;;;17.30;99.90;;;17.33;94.62;98933.25;4955370;28;20082;-85
2023/08/01 07:30:32;;;;;;;24.75;14.13;;;17.30;99.90;;;17.35;94.26;98931.84;4969835;28;20095;-85
2023/08/01 07:32:59;;;;;;;26.33;12.63;;;17.30;99.90;;;17.40;94.56;98923.69;4965789;28;20102;-86
2023/08/01 07:35:27;;;;;;;23.05;12.95;;;17.40;99.90;;;17.44;93.78;98927.38;4953215;28;20035;-86
2023/08/01 07:37:54;;;;;;;21.25;13.07;;;17.50;99.90;;;17.50;94.04;98923.50;4950493;28;20113;-86
2023/08/01 07:40:23;;;;;;;22.38;11.88;;;17.50;99.90;;;17.53;94.02;98929.44;4950697;28;20098;-86
2023/08/01 07:42:52;;;;;;;21.00;11.93;;;17.50;99.90;;;17.51;93.40;98932.38;4951627;28;20043;-86
2023/08/01 07:45:19;;;;;;;23.13;12.35;;;17.50;99.90;;;17.50;93.08;98931.59;4972122;28;20055;-85
2023/08/01 07:47:47;;;;;;;20.67;12.20;;;17.50;99.90;;;17.41;93.47;98929.88;4964786;28;21336;-86
2023/08/01 07:50:14;;;;;;;21.85;12.30;;;17.40;99.90;;;17.45;93.14;98937.06;4965152;28;20139;-85
2023/08/01 07:52:42;;;;;;;23.17;11.38;;;17.50;99.90;;;17.45;92.89;98928.97;4950874;28;20719;-85
2023/08/01 07:55:09;;;;;;;21.30;11.63;;;17.40;99.90;;;17.46;92.47;98933.28;4946495;28;20071;-88
2023/08/01 07:57:38;;;;;;;17.60;11.00;;;17.40;99.90;;;17.39;92.54;98943.66;4966146;28;20512;-86
2023/08/01 08:00:09;;;;;;;19.58;11.00;;;17.30;99.90;;;17.39;92.42;98940.16;4946289;28;20133;-86
2023/08/01 08:02:42;;;;;;;21.08;11.15;;;17.30;99.90;;;17.42;92.74;98937.69;4952954;28;20125;-86
2023/08/01 08:05:10;;;;;;;19.88;10.60;;;17.40;99.90;;;17.40;91.98;98939.06;4947905;28;20050;-87
2023/08/01 08:07:38;;;;;;;23.15;11.15;;;17.30;99.90;;;17.42;92.84;98943.06;4954924;28;20086;-87
2023/08/01 08:10:07;;;;;;;20.45;10.73;;;17.40;99.90;;;17.45;91.54;98942.47;4959849;28;20575;-86
2023/08/01 08:12:34;;;;;;;27.75;11.43;;;17.50;99.90;;;17.54;92.65;98947.19;4966330;28;20130;-87
2023/08/01 08:15:03;;;;;;;20.90;10.55;;;17.50;99.90;;;17.62;93.46;98946.53;4950235;28;20039;-86
2023/08/01 08:17:31;;;;;;;21.98;10.90;;;17.60;99.90;;;17.55;91.69;98940.69;4949302;28;20071;-86
2023/08/01 08:19:58;;;;;;;21.33;11.88;;;17.60;99.90;;;17.68;93.06;98942.66;4948643;28;20138;-87
2023/08/01 08:22:25;;;;;;;18.90;10.50;;;17.70;99.90;;;17.85;95.77;98945.59;4949295;28;20050;-89
2023/08/01 08:24:52;;;;;;;23.40;11.32;;;17.90;99.90;;;17.97;96.61;98942.44;4975747;28;20130;-88
2023/08/01 08:27:20;;;;;;;25.08;12.73;;;18.10;99.90;;;18.04;96.42;98944.75;4973668;28;20043;-88
2023/08/01 08:29:48;;;;;;;31.25;12.15;;;18.20;99.90;;;18.03;95.34;98946.66;4968016;28;20452;-88
2023/08/01 08:32:16;;;;;;;21.33;12.00;;;18.20;99.90;;;18.05;94.98;98949.03;4952379;29;20039;-88
2023/08/01 08:34:43;;;;;;;19.17;11.65;;;18.20;99.90;;;17.98;92.92;98950.22;4967875;28;20170;-88
2023/08/01 08:37:11;;;;;;;20.42;11.40;;;18.10;99.90;;;17.97;92.85;98943.25;4968569;28;20039;-88
2023/08/01 08:39:38;;;;;;;20.98;11.18;;;18.10;99.90;;;18.01;92.44;98949.66;4950667;28;20059;-88
2023/08/01 08:42:06;;;;;;;20.35;11.88;;;18.10;99.90;;;18.01;92.29;98944.25;4967396;28;20071;-88
2023/08/01 08:44:43;;;;;;;24.30;11.65;;;18.10;99.90;;;17.99;91.71;98945.63;4955432;28;20428;-88
2023/08/01 08:47:12;;;;;;;20.02;11.15;;;18.10;99.90;;;17.90;89.70;98956.28;4954021;28;20087;-88
2023/08/01 08:49:42;;;;;;;17.38;10.70;;;17.90;99.90;;;17.81;89.65;98954.56;4953634;28;20051;-88
2023/08/01 08:52:11;;;;;;;22.05;10.20;;;17.80;99.90;;;17.79;90.47;98954.09;4951556;28;20481;-90
2023/08/01 08:54:41;;;;;;;19.33;11.30;;;17.80;99.90;;;17.92;92.99;98956.03;4965658;28;20135;-88
2023/08/01 08:57:09;;;;;;;17.85;10.00;;;18.00;99.90;;;17.93;91.61;98957.63;4951208;28;20121;-88
2023/08/01 08:59:38;;;;;;;22.00;10.10;;;18.00;99.90;;;17.99;91.25;98949.13;4951485;28;20497;-89
2023/08/01 09:02:06;;;;;;;18.23;9.95;;;18.10;99.90;;;18.01;90.07;98955.03;4969620;28;20050;-89
2023/08/01 09:04:33;;;;;;;18.38;9.38;;;18.10;99.90;;;18.10;89.67;98948.94;4936856;28;20479;-88
2023/08/01 09:07:08;;;;;;;19.67;9.43;;;18.30;99.90;;;18.21;91.00;98944.97;4975077;28;20039;-89
2023/08/01 09:09:36;;;;;;;17.95;9.45;;;18.40;99.90;;;18.33;91.75;98945.25;4970305;28;20090;-89
2023/08/01 09:12:05;;;;;;;17.88;9.82;;;18.60;99.90;;;18.48;92.61;98944.16;4954019;28;20043;-88
2023/08/01 09:14:33;;;;;;;17.00;9.77;;;18.80;99.90;;;18.53;91.97;98955.66;4973352;28;20043;-88
2023/08/01 09:17:08;;;;;;;17.67;10.07;;;18.80;99.90;;;18.49;92.52;98951.16;4962971;28;20102;-88
2023/08/01 09:19:36;;;;;;;18.15;9.50;;;18.80;99.90;;;18.53;90.59;98955.66;4951312;28;20085;-88
2023/08/01 09:22:12;;;;;;;15.40;8.63;;;18.80;99.90;;;18.63;90.52;98964.66;4969697;28;20039;-88
2023/08/01 09:24:39;;;;;;;13.45;8.45;;;18.90;99.90;;;18.60;88.46;98957.16;4955260;28;20042;-88
2023/08/01 09:27:08;;;;;;;22.67;8.80;;;18.90;99.90;;;18.57;86.14;98955.06;4955833;28;20134;-88
2023/08/01 09:29:35;;;;;;;14.88;8.13;;;18.90;99.90;;;18.57;86.02;98955.06;4967616;28;20043;-88
2023/08/01 09:32:14;;;;;;;18.85;9.77;;;18.90;99.90;;;18.82;91.25;98951.84;4959517;28;20547;-89
2023/08/01 09:34:43;;;;;;;16.85;7.45;;;19.10;99.90;;;18.99;87.33;98952.03;4960556;28;20137;-87
2023/08/01 09:37:18;;;;;;;13.90;7.95;;;19.40;99.90;;;19.08;88.73;98954.00;4995933;23;20096;-83
2023/08/01 09:39:53;;;;;;;12.93;7.10;;;19.50;99.90;;;19.02;84.94;98951.41;5023172;23;20078;-82
2023/08/01 09:42:21;;;;;;;13.48;7.00;;;19.40;99.90;;;18.99;84.04;98956.66;4998079;28;20062;-86
2023/08/01 09:44:48;;;;;;;13.15;7.22;;;19.40;99.90;;;19.00;83.70;98953.63;4999046;28;20038;-83
2023/08/01 09:47:17;;;;;;;14.98;7.20;;;19.40;99.90;;;19.08;82.36;98948.59;4994081;28;20454;-84
2023/08/01 09:49:50;;;;;;;12.05;5.88;;;19.50;99.90;;;19.11;82.72;98948.00;5001796;28;20464;-84
2023/08/01 09:52:28;;;;;;;13.85;6.28;;;19.50;99.90;;;19.15;82.22;98946.28;4999399;28;20046;-84
2023/08/01 09:54:55;;;;;;;13.32;6.97;;;19.50;99.90;;;19.23;83.49;98949.06;5020609;28;20082;-82
2023/08/01 09:57:29;;;;;;;12.52;6.68;;;19.60;99.90;;;19.29;82.43;98944.34;4992928;28;20038;-83
2023/08/01 09:59:57;;;;;;;13.82;6.97;;;19.70;99.90;;;19.17;79.68;98949.47;4995718;28;20500;-84
2023/08/01 10:02:27;;;;;;;15.90;7.70;;;19.50;99.90;;;19.02;81.64;98977.63;4996562;28;20137;-84
2023/08/01 10:04:57;;;;;;;18.38;7.95;;;19.30;99.90;;;18.81;83.68;98957.56;5002595;28;20073;-85
2023/08/01 10:07:30;;;;;;;14.25;6.80;;;19.00;99.90;;;18.67;84.45;98963.75;4998023;28;20456;-85
2023/08/01 10:10:00;;;;;;;16.15;6.72;;;18.80;99.90;;;18.63;87.12;98960.03;5006761;28;20039;-84
2023/08/01 10:12:28;;;;;;;16.80;7.70;;;18.70;99.90;;;18.70;88.51;98965.09;4987740;28;20122;-83
2023/08/01 10:14:55;;;;;;;16.50;7.63;;;18.80;99.90;;;18.73;91.89;98950.97;5007384;28;20046;-84